Time;durP1;ratioP1;P1;durP2;ratioP2;P2;SDS_P1;SDS_P2;PMS_P1;PMS_P2;Temp;Humidity;BMP_temperature;BMP_pressure;BME280_temperature;BME280_humidity;BME280_pressure;Samples;Min_cycle;Max_cycle;Signal;HPM_P1;HPM_P2
2022/12/24 00:00:28;;;;;;;51.13;21.90;;;5.20;99.90;;;2.89;100.00;99471.13;10548558;28;20056;-83
2022/12/24 00:05:31;;;;;;;56.87;20.53;;;5.20;99.90;;;2.90;100.00;99475.41;10537260;28;20083;-81
2022/12/24 00:10:34;;;;;;;58.23;21.93;;;5.20;99.90;;;2.91;100.00;99479.69;10525236;28;20147;-81
2022/12/24 00:15:37;;;;;;;51.13;19.53;;;5.30;99.90;;;2.91;100.00;99478.88;10523918;28;20094;-80
2022/12/24 00:20:40;;;;;;;42.30;17.23;;;5.30;99.90;;;2.90;100.00;99472.78;10548354;28;20067;-81
2022/12/24 00:25:44;;;;;;;41.10;17.00;;;5.30;99.90;;;2.89;100.00;99471.13;10540346;28;20060;-81
2022/12/24 00:30:47;;;;;;;43.47;16.97;;;5.20;99.90;;;2.91;100.00;99471.81;10557713;28;20071;-82
2022/12/24 00:35:52;;;;;;;43.43;17.67;;;5.20;99.90;;;2.93;100.00;99474.31;10524941;28;20415;-81
2022/12/24 00:41:00;;;;;;;46.50;17.33;;;5.30;99.90;;;2.93;100.00;99484.81;10532910;28;20063;-82
2022/12/24 00:46:03;;;;;;;65.33;24.97;;;5.30;99.90;;;2.94;100.00;99466.31;10543837;28;20064;-82
2022/12/24 00:51:07;;;;;;;46.00;17.90;;;5.30;99.90;;;2.92;100.00;99485.78;10529871;28;20134;-81
2022/12/24 00:56:10;;;;;;;48.03;18.67;;;5.30;99.90;;;2.94;100.00;99479.44;10541543;28;20118;-81
2022/12/24 01:01:14;;;;;;;45.30;18.20;;;5.30;99.90;;;2.95;100.00;99451.41;10543999;28;20079;-81
2022/12/24 01:06:20;;;;;;;49.97;18.30;;;5.30;99.90;;;2.97;100.00;99446.00;10524614;28;20514;-82
2022/12/24 01:11:24;;;;;;;46.77;17.97;;;5.30;99.90;;;2.97;100.00;99438.94;10532574;28;20067;-80
2022/12/24 01:16:27;;;;;;;61.83;21.23;;;5.30;99.90;;;2.97;100.00;99456.50;10546229;28;20427;-81
2022/12/24 01:21:30;;;;;;;50.17;20.80;;;5.30;99.90;;;2.99;100.00;99444.88;10517865;28;20089;-81
2022/12/24 01:26:32;;;;;;;59.00;21.43;;;5.30;99.90;;;3.00;100.00;99437.84;10539827;28;20060;-81
2022/12/24 01:31:36;;;;;;;50.80;18.60;;;5.30;99.90;;;3.00;100.00;99429.97;10545289;28;20128;-81
2022/12/24 01:36:39;;;;;;;45.97;17.70;;;5.30;99.90;;;3.02;100.00;99412.28;10532257;28;20067;-81
2022/12/24 01:47:24;;;;;;;56.60;18.80;;;5.40;99.90;;;3.05;100.00;99406.75;10502149;28;20535;-80
2022/12/24 01:52:33;;;;;;;55.27;17.30;;;5.40;99.90;;;3.05;100.00;99386.59;10501140;28;20094;-80
2022/12/24 01:57:47;;;;;;;66.23;19.90;;;5.40;99.90;;;3.04;100.00;99415.59;10491282;28;20061;-80
2022/12/24 02:02:52;;;;;;;55.97;17.53;;;5.40;99.90;;;3.01;100.00;99432.47;10470836;28;21004;-81
2022/12/24 02:07:58;;;;;;;72.97;22.17;;;5.30;99.90;;;2.99;100.00;99418.63;10496750;28;20063;-81
2022/12/24 02:13:03;;;;;;;63.23;19.73;;;5.30;99.90;;;2.97;100.00;99415.34;10489525;28;20052;-80
2022/12/24 02:18:51;;;;;;;56.87;19.47;;;5.30;99.90;;;2.98;100.00;99431.91;10509847;28;20048;-81
2022/12/24 02:24:27;;;;;;;71.30;22.53;;;5.30;99.90;;;3.02;100.00;99446.41;10486128;28;20092;-81
2022/12/24 02:30:04;;;;;;;56.87;17.67;;;5.30;99.90;;;3.01;100.00;99440.34;10515243;28;20061;-81
2022/12/24 02:35:11;;;;;;;56.10;17.40;;;5.30;99.90;;;3.02;100.00;99446.41;10484245;28;20115;-79
2022/12/24 02:40:22;;;;;;;61.90;19.37;;;5.30;99.90;;;2.99;100.00;99446.69;10506823;28;20068;-81
2022/12/24 02:45:30;;;;;;;40.47;16.93;;;5.30;99.90;;;2.95;100.00;99441.72;10471565;28;20350;-81
2022/12/24 02:50:34;;;;;;;49.97;17.37;;;5.30;99.90;;;2.97;100.00;99456.50;10495925;28;20047;-81
2022/12/24 02:56:06;;;;;;;75.13;25.60;;;5.30;99.90;;;2.97;100.00;99451.25;10482323;28;20622;-81
2022/12/24 03:01:28;;;;;;;65.63;21.92;;;5.30;99.90;;;3.01;100.00;99453.47;10466953;28;20063;-81
2022/12/24 03:06:51;;;;;;;58.80;21.33;;;5.30;99.90;;;3.05;100.00;99449.59;10492242;28;20057;-81
2022/12/24 03:12:08;;;;;;;44.77;17.27;;;5.40;99.90;;;3.11;100.00;99441.16;10517132;28;20060;-82
2022/12/24 03:17:12;;;;;;;63.63;21.30;;;5.40;99.90;;;3.17;100.00;99429.25;10486341;27;20504;-81
2022/12/24 03:22:16;;;;;;;62.23;22.07;;;5.50;99.90;;;3.16;100.00;99407.44;10513488;28;20121;-81
2022/12/24 03:27:20;;;;;;;71.37;21.80;;;5.50;99.90;;;3.12;100.00;99407.84;10478619;28;20057;-81
2022/12/24 03:32:29;;;;;;;79.60;23.87;;;5.40;99.90;;;3.00;100.00;99422.09;10485141;28;20064;-81
2022/12/24 03:37:32;;;;;;;50.47;18.60;;;5.40;99.90;;;2.91;100.00;99421.13;10501787;28;20151;-81
2022/12/24 03:42:35;;;;;;;59.93;20.63;;;5.30;99.90;;;2.82;100.00;99433.31;10479483;28;20102;-80
2022/12/24 03:47:39;;;;;;;42.53;17.57;;;5.20;99.90;;;3.32;100.00;99448.91;10523368;28;20088;-81
2022/12/24 03:52:42;;;;;;;44.13;19.27;;;5.40;99.90;;;3.99;100.00;99447.91;10535006;28;20500;-81
2022/12/24 03:57:45;;;;;;;50.40;20.10;;;6.00;99.90;;;4.55;100.00;99454.81;10533690;28;20056;-81
2022/12/24 04:02:48;;;;;;;37.70;17.93;;;6.50;99.90;;;4.94;100.00;99436.16;10518847;27;20060;-80
2022/12/24 04:07:51;;;;;;;32.93;17.03;;;7.00;99.90;;;5.22;100.00;99425.53;10546927;28;20342;-81
2022/12/24 04:12:54;;;;;;;28.83;14.23;;;7.30;99.90;;;5.42;100.00;99432.28;10530001;27;20063;-81
2022/12/24 04:17:57;;;;;;;30.57;14.97;;;7.50;99.90;;;5.68;100.00;99440.19;10538708;27;20056;-80
2022/12/24 04:23:00;;;;;;;29.20;15.03;;;7.70;99.90;;;5.88;100.00;99432.91;10566769;28;20401;-80
2022/12/24 04:28:03;;;;;;;25.47;13.13;;;7.90;99.90;;;6.05;100.00;99439.94;10538291;28;20103;-80
2022/12/24 04:33:06;;;;;;;22.47;12.20;;;8.10;99.90;;;6.16;100.00;99426.47;10559590;27;20065;-80
2022/12/24 04:38:09;;;;;;;22.73;12.20;;;8.20;99.90;;;6.27;100.00;99424.53;10557617;27;20063;-80
2022/12/24 04:43:13;;;;;;;18.87;10.60;;;8.30;99.90;;;6.38;100.00;99424.25;10540900;28;20114;-81
2022/12/24 04:48:16;;;;;;;17.87;10.20;;;8.50;99.90;;;6.58;100.00;99415.06;10492636;28;20060;-80
2022/12/24 04:53:19;;;;;;;16.50;9.67;;;8.70;99.90;;;6.77;100.00;99442.19;10467321;28;20056;-80
2022/12/24 04:58:22;;;;;;;17.70;9.10;;;8.80;99.90;;;6.83;100.00;99452.09;10506293;28;20067;-79
2022/12/24 05:03:25;;;;;;;14.30;8.10;;;9.00;99.90;;;6.84;100.00;99437.91;10476822;28;20160;-79
2022/12/24 05:08:29;;;;;;;12.03;7.27;;;9.00;99.90;;;6.88;100.00;99437.41;10488471;28;20147;-79
2022/12/24 05:13:33;;;;;;;12.80;6.40;;;9.10;99.90;;;6.92;100.00;99440.56;10492189;28;20068;-79
2022/12/24 05:18:48;;;;;;;21.73;12.17;;;9.10;99.90;;;6.82;100.00;99451.28;10486552;28;20079;-80
2022/12/24 05:29:14;;;;;;;28.47;15.33;;;8.80;99.90;;;5.92;100.00;99455.38;10504292;28;20064;-80
2022/12/24 05:34:17;;;;;;;32.23;15.50;;;8.30;99.90;;;5.52;100.00;99469.91;10471367;28;20068;-85
2022/12/24 05:39:20;;;;;;;33.47;15.17;;;7.90;99.90;;;5.17;100.00;99472.56;10470027;28;20407;-81
2022/12/24 05:44:23;;;;;;;22.27;9.57;;;7.50;99.90;;;5.07;100.00;99460.31;10486051;28;20061;-82
2022/12/24 05:49:26;;;;;;;14.67;7.50;;;7.30;99.90;;;5.57;100.00;99454.44;10481988;28;20168;-81
2022/12/24 05:54:29;;;;;;;9.47;5.57;;;7.60;99.90;;;6.20;100.00;99457.84;10461185;28;20140;-81
2022/12/24 05:59:32;;;;;;;8.37;5.03;;;8.10;99.90;;;6.73;100.00;99446.16;10476312;28;20060;-82
2022/12/24 06:04:36;;;;;;;8.60;4.80;;;8.60;99.90;;;7.08;100.00;99445.88;10497152;28;20143;-81
2022/12/24 06:09:39;;;;;;;8.63;5.03;;;9.10;99.90;;;7.37;100.00;99457.75;10486323;28;20060;-81
2022/12/24 06:14:42;;;;;;;5.63;3.90;;;9.30;99.90;;;7.49;100.00;99456.44;10484023;28;20455;-81
2022/12/24 06:19:45;;;;;;;7.50;4.13;;;9.60;99.90;;;7.57;100.00;99472.31;10508043;28;20120;-82
2022/12/24 06:24:48;;;;;;;6.87;4.20;;;9.70;99.90;;;7.72;100.00;99464.53;10512868;28;20072;-82
2022/12/24 06:29:51;;;;;;;19.60;8.40;;;9.80;99.90;;;7.74;100.00;99460.72;10504171;28;20130;-81
2022/12/24 06:34:54;;;;;;;20.33;10.20;;;9.90;99.90;;;7.78;100.00;99459.38;10487309;28;20595;-82
2022/12/24 06:39:56;;;;;;;7.83;4.77;;;10.00;99.90;;;7.80;100.00;99469.81;10479334;28;20081;-82
2022/12/24 06:44:59;;;;;;;7.37;4.10;;;10.00;99.90;;;7.84;100.00;99481.69;10503743;28;20516;-82
2022/12/24 06:50:10;;;;;;;19.60;9.67;;;10.00;99.90;;;7.78;100.00;99499.06;10538342;28;20215;-82
2022/12/24 06:55:13;;;;;;;19.67;9.87;;;10.00;99.90;;;7.09;100.00;99508.28;10563782;28;20731;-81
2022/12/24 07:00:17;;;;;;;25.17;11.43;;;9.40;99.90;;;6.35;100.00;99517.75;10548380;28;20076;-81
2022/12/24 07:05:21;;;;;;;27.70;13.57;;;8.70;99.90;;;5.84;100.00;99535.22;10519962;28;20558;-81
2022/12/24 07:10:24;;;;;;;22.00;12.17;;;8.20;99.90;;;5.37;100.00;99526.75;10543352;28;20053;-81
2022/12/24 07:15:27;;;;;;;33.57;15.77;;;7.70;99.90;;;4.96;100.00;99536.88;10545213;28;20087;-81
2022/12/24 07:20:31;;;;;;;31.43;15.83;;;7.30;99.90;;;4.71;100.00;99535.78;10534673;28;20135;-81
2022/12/24 07:25:34;;;;;;;55.20;23.77;;;7.00;99.90;;;4.52;100.00;99547.22;10545001;28;20519;-81
2022/12/24 07:30:37;;;;;;;54.07;26.00;;;6.80;99.90;;;4.37;100.00;99559.19;10516962;28;20067;-81
2022/12/24 07:35:40;;;;;;;44.23;19.90;;;6.70;99.90;;;4.24;100.00;99583.16;10531263;28;20060;-81
2022/12/24 07:40:43;;;;;;;40.33;21.80;;;6.60;99.90;;;4.15;100.00;99567.44;10529570;28;20060;-81
2022/12/24 07:45:45;;;;;;;40.50;20.10;;;6.40;99.90;;;4.14;100.00;99584.16;10537584;28;20060;-81
2022/12/24 07:50:49;;;;;;;48.03;25.13;;;6.40;99.90;;;4.15;100.00;99593.72;10527177;28;20059;-81
2022/12/24 07:55:53;;;;;;;62.90;29.83;;;6.40;99.90;;;4.17;100.00;99597.88;10546139;28;20139;-81
2022/12/24 08:00:59;;;;;;;65.10;29.70;;;6.40;99.90;;;4.22;100.00;99585.13;10535904;28;20064;-81
2022/12/24 08:06:02;;;;;;;49.37;25.70;;;6.50;99.90;;;4.33;100.00;99599.09;10536476;28;20053;-83
2022/12/24 08:11:06;;;;;;;43.90;23.43;;;6.60;99.90;;;4.49;100.00;99618.53;10553924;28;20066;-83
2022/12/24 08:16:09;;;;;;;52.67;26.37;;;6.70;99.90;;;4.65;100.00;99631.09;10561108;28;20458;-83
2022/12/24 08:21:13;;;;;;;44.10;23.17;;;6.90;99.90;;;4.78;100.00;99642.13;10535485;28;20179;-83
2022/12/24 08:26:16;;;;;;;42.47;23.27;;;7.00;99.90;;;4.92;100.00;99648.75;10528995;28;20155;-82
2022/12/24 08:31:19;;;;;;;55.17;28.73;;;7.20;99.90;;;5.08;100.00;99659.47;10544382;28;20053;-83
2022/12/24 08:36:22;;;;;;;48.93;26.40;;;7.30;99.90;;;5.31;100.00;99656.44;10533171;28;20581;-85
2022/12/24 08:41:25;;;;;;;12.30;7.80;;;7.50;99.90;;;5.84;100.00;99671.50;10536840;28;20109;-82
2022/12/24 08:46:28;;;;;;;10.83;6.50;;;8.00;99.90;;;6.31;100.00;99660.72;10548690;28;20519;-86
2022/12/24 08:51:31;;;;;;;5.30;2.87;;;8.50;99.90;;;6.74;100.00;99674.88;10549338;28;20168;-85
2022/12/24 08:56:34;;;;;;;6.50;2.13;;;8.90;99.90;;;7.18;100.00;99688.81;10574086;28;20556;-80
2022/12/24 09:01:37;;;;;;;4.47;1.50;;;9.30;99.90;;;7.62;100.00;99697.41;10567909;28;20423;-80
2022/12/24 09:06:40;;;;;;;3.23;1.57;;;9.80;99.90;;;7.92;100.00;99706.56;10544230;28;20056;-78
2022/12/24 09:11:44;;;;;;;3.70;1.00;;;10.00;99.90;;;8.24;100.00;99705.78;10554237;28;20489;-83
2022/12/24 09:16:48;;;;;;;1.50;0.70;;;10.40;99.90;;;8.48;100.00;99710.28;10544712;28;20087;-84
2022/12/24 09:21:51;;;;;;;1.30;0.63;;;10.60;99.90;;;8.73;100.00;99713.72;10530666;28;20052;-85
2022/12/24 09:26:54;;;;;;;2.57;0.97;;;10.90;99.90;;;8.96;100.00;99710.38;10568872;28;20064;-85
2022/12/24 09:32:00;;;;;;;2.97;1.80;;;11.10;99.90;;;9.14;100.00;99705.69;10552645;28;20060;-85
2022/12/24 09:37:03;;;;;;;2.23;0.93;;;11.40;99.90;;;9.26;100.00;99699.03;10536027;28;20052;-86
2022/12/24 09:42:36;;;;;;;2.50;0.90;;;11.50;99.90;;;9.45;98.39;99710.22;10518193;28;20145;-85
2022/12/24 09:47:51;;;;;;;1.83;0.83;;;11.70;99.90;;;9.70;95.67;99702.97;10565012;28;20060;-86
2022/12/24 09:52:56;;;;;;;1.40;0.73;;;11.90;99.90;;;10.01;93.45;99705.59;10537902;28;20090;-85
2022/12/24 09:58:03;;;;;;;1.33;0.67;;;12.20;99.90;;;10.27;90.28;99715.91;10558658;28;20060;-85
2022/12/24 10:03:15;;;;;;;3.20;0.90;;;12.50;99.90;;;10.38;88.50;99713.66;10531807;28;20088;-85
2022/12/24 10:08:40;;;;;;;3.03;0.90;;;12.60;99.90;;;10.42;86.92;99728.22;10544752;28;20064;-84
2022/12/24 10:14:25;;;;;;;4.33;1.33;;;12.70;99.90;;;10.42;86.61;99728.22;10542488;28;20059;-85
2022/12/24 10:20:16;;;;;;;1.63;0.90;;;12.70;99.90;;;10.39;85.62;99725.13;10562928;28;20135;-91
2022/12/24 10:25:33;;;;;;;3.30;1.63;;;12.60;99.90;;;10.35;85.78;99729.94;10540203;28;20064;-85
2022/12/24 10:30:36;;;;;;;3.40;1.53;;;12.70;99.90;;;10.35;86.12;99743.22;10529933;28;20088;-84
2022/12/24 10:35:47;;;;;;;4.77;1.53;;;12.60;99.90;;;10.40;86.16;99745.34;10541732;28;20142;-85
2022/12/24 10:40:54;;;;;;;2.97;1.47;;;12.60;99.90;;;10.43;86.16;99740.53;10553220;28;20064;-82
2022/12/24 10:46:03;;;;;;;2.57;1.10;;;12.70;99.90;;;10.51;85.82;99747.59;10548636;28;20534;-89
2022/12/24 10:51:34;;;;;;;1.80;1.10;;;12.70;99.90;;;10.58;84.81;99745.88;10523262;28;20188;-88
2022/12/24 10:57:03;;;;;;;3.17;1.37;;;12.80;99.90;;;10.67;84.48;99741.28;10547454;28;20067;-89
2022/12/24 11:02:36;;;;;;;3.97;1.77;;;12.90;99.90;;;10.87;83.25;99753.09;10553447;28;20142;-86
2022/12/24 11:07:40;;;;;;;2.60;0.93;;;13.10;99.90;;;11.00;81.48;99752.47;10550264;28;20082;-87
2022/12/24 11:12:47;;;;;;;2.03;0.73;;;13.20;99.90;;;11.11;78.20;99753.84;10543331;28;20143;-87
2022/12/24 11:18:14;;;;;;;1.40;0.60;;;13.30;99.90;;;11.23;75.43;99755.88;10545903;28;20059;-90
2022/12/24 11:23:19;;;;;;;2.50;0.70;;;13.40;99.90;;;11.38;73.03;99765.69;10533715;28;20060;-90
2022/12/24 11:28:32;;;;;;;2.43;0.43;;;13.50;99.90;;;11.44;71.46;99763.13;10533923;28;20145;-87
2022/12/24 11:33:51;;;;;;;2.40;0.83;;;13.60;98.90;;;11.47;69.34;99760.09;10537507;28;20060;-82
2022/12/24 11:38:57;;;;;;;1.17;0.53;;;13.70;98.90;;;11.51;69.23;99766.72;10554929;28;20052;-85
2022/12/24 11:44:06;;;;;;;1.83;0.50;;;13.70;99.30;;;11.53;68.65;99774.50;10530127;28;20576;-82
2022/12/24 11:49:35;;;;;;;3.10;0.70;;;13.70;98.40;;;11.58;68.18;99773.97;10491011;28;20064;-85
2022/12/24 11:55:16;;;;;;;2.60;0.70;;;13.80;98.40;;;11.60;68.56;99777.25;10506556;28;20060;-85
2022/12/24 12:00:19;;;;;;;2.27;0.57;;;13.80;98.10;;;11.55;67.48;99777.81;10503707;28;20072;-85
2022/12/24 12:05:41;;;;;;;1.60;0.70;;;13.90;97.90;;;11.62;67.90;99780.53;10497942;28;20063;-84
2022/12/24 12:10:48;;;;;;;2.70;0.77;;;13.90;97.10;;;11.67;67.24;99788.81;10504666;28;20696;-85
2022/12/24 12:16:04;;;;;;;2.53;0.50;;;13.90;97.40;;;11.60;67.10;99796.72;10487285;28;20088;-87
2022/12/24 12:21:20;;;;;;;3.83;0.63;;;13.90;97.30;;;11.50;67.63;99790.81;10518526;28;20146;-83
2022/12/24 12:26:31;;;;;;;2.83;0.40;;;13.70;97.50;;;11.43;68.33;99792.56;10483752;28;20448;-86
2022/12/24 12:31:52;;;;;;;;;;;13.70;97.80;;;11.43;69.39;99796.06;10488536;28;20068;-87
2022/12/24 12:37:13;;;;;;;4.77;1.70;;;13.70;98.70;;;11.38;69.77;99787.78;10507314;28;19983;-87
2022/12/24 12:42:34;;;;;;;3.27;0.97;;;13.60;98.60;;;11.26;69.28;99798.06;10502584;28;20504;-87
2022/12/24 12:48:07;;;;;;;2.70;0.60;;;13.50;98.20;;;11.12;70.54;99808.69;10541655;28;20088;-84
2022/12/24 12:53:23;;;;;;;2.13;1.00;;;13.40;99.10;;;10.98;71.57;99808.50;10543158;28;20137;-84
2022/12/24 12:58:32;;;;;;;3.93;1.47;;;13.20;99.60;;;10.95;72.33;99823.97;10528040;28;20060;-85
2022/12/24 13:04:04;;;;;;;1.67;0.43;;;13.10;99.90;;;10.88;73.01;99837.16;10547550;28;20066;-85
2022/12/24 13:09:16;;;;;;;1.37;0.80;;;13.10;99.90;;;10.84;72.38;99827.03;10538467;28;20079;-84
2022/12/24 13:15:02;;;;;;;2.07;0.57;;;13.10;99.90;;;10.76;72.86;99841.22;10527167;27;20056;-87
2022/12/24 13:20:13;;;;;;;1.73;0.60;;;13.00;99.90;;;10.66;73.59;99840.63;10550956;28;20084;-83
2022/12/24 13:25:44;;;;;;;3.80;0.98;;;12.90;99.90;;;10.56;74.10;99856.81;10527569;28;20111;-85
2022/12/24 13:30:52;;;;;;;4.33;0.87;;;12.80;99.90;;;10.45;73.98;99851.91;10525036;28;20055;-81
2022/12/24 13:36:15;;;;;;;4.07;0.80;;;12.70;99.90;;;10.34;73.28;99863.75;10536898;28;20060;-81
2022/12/24 13:41:37;;;;;;;1.67;0.70;;;12.60;99.90;;;10.23;73.32;99865.94;10531785;28;20048;-82
2022/12/24 13:47:20;;;;;;;3.50;1.30;;;12.40;99.90;;;10.09;73.76;99886.09;10527595;28;20597;-82
2022/12/24 13:52:30;;;;;;;2.80;0.70;;;12.30;99.90;;;9.99;74.79;99891.59;10546494;28;20067;-82
2022/12/24 13:57:44;;;;;;;1.47;0.50;;;12.20;99.90;;;9.98;75.11;99886.44;10530028;28;20068;-82
2022/12/24 14:03:03;;;;;;;4.63;1.88;;;12.20;99.90;;;9.90;75.77;99892.63;10521251;28;20062;-82
2022/12/24 14:08:25;;;;;;;1.37;0.53;;;12.10;99.90;;;9.82;76.97;99911.22;10540284;28;20149;-82
2022/12/24 14:13:37;;;;;;;3.10;0.80;;;12.10;99.90;;;9.70;77.35;99913.38;10518838;28;20067;-81
2022/12/24 14:18:44;;;;;;;1.30;0.53;;;12.00;99.90;;;9.62;77.99;99921.38;10540648;28;20063;-82
2022/12/24 14:24:13;;;;;;;1.80;0.70;;;11.80;99.90;;;9.53;78.61;99933.81;10532333;28;20060;-82
2022/12/24 14:29:30;;;;;;;2.47;0.63;;;11.70;99.90;;;9.42;78.97;99954.56;10525775;28;20147;-82
2022/12/24 14:34:33;;;;;;;4.53;1.10;;;11.60;99.90;;;9.36;79.47;99966.66;10540467;28;20067;-82
2022/12/24 14:39:46;;;;;;;1.87;0.70;;;11.60;99.90;;;9.20;80.28;99970.13;10517210;28;20499;-82
2022/12/24 14:45:08;;;;;;;1.97;1.10;;;11.50;99.90;;;9.03;82.20;99984.34;10541079;28;20202;-83
2022/12/24 14:50:39;;;;;;;1.35;0.68;;;11.30;99.90;;;8.90;83.34;99994.59;10538562;28;20060;-82
2022/12/24 14:55:44;;;;;;;1.83;0.80;;;11.20;99.90;;;8.82;84.40;99993.59;10536143;28;20167;-81
2022/12/24 15:00:48;;;;;;;2.43;1.03;;;11.10;99.90;;;8.76;84.99;100002.19;10530622;28;20427;-82
2022/12/24 15:06:17;;;;;;;3.30;1.63;;;11.00;99.90;;;8.68;84.97;100018.03;10548555;28;20060;-82
2022/12/24 15:11:23;;;;;;;3.10;1.17;;;10.90;99.90;;;8.51;85.42;100003.88;10523152;27;20523;-82
2022/12/24 15:16:35;;;;;;;2.13;1.27;;;10.80;99.90;;;8.40;86.30;100019.25;10523249;28;20432;-82
2022/12/24 15:21:42;;;;;;;3.53;1.03;;;10.70;99.90;;;8.34;86.73;100025.97;10538297;28;20401;-81
2022/12/24 15:26:46;;;;;;;1.70;0.93;;;10.60;99.90;;;8.28;86.05;100018.66;10542565;28;20073;-81
2022/12/24 15:32:00;;;;;;;2.10;0.83;;;10.50;99.90;;;8.23;85.63;100026.25;10528920;28;20060;-81
2022/12/24 15:37:18;;;;;;;1.60;0.70;;;10.50;99.90;;;8.19;84.89;100041.59;10509888;28;20067;-81
2022/12/24 15:42:23;;;;;;;1.47;0.80;;;10.40;99.90;;;8.20;84.09;100045.06;10521793;28;20063;-81
2022/12/24 15:47:38;;;;;;;3.67;0.97;;;10.40;99.90;;;8.27;83.22;100049.56;10507515;28;20092;-81
2022/12/24 15:52:42;;;;;;;2.17;0.80;;;10.50;99.90;;;8.42;81.00;100059.63;10544382;28;20082;-81
2022/12/24 15:57:46;;;;;;;2.60;0.60;;;10.60;99.90;;;8.44;79.98;100053.19;10528323;28;20067;-82
2022/12/24 16:02:49;;;;;;;3.50;1.00;;;10.60;99.90;;;8.42;79.21;100067.56;10495178;28;20111;-82
2022/12/24 16:08:15;;;;;;;2.37;0.60;;;10.60;99.90;;;8.47;78.15;100074.06;10529674;28;20436;-82
2022/12/24 16:13:28;;;;;;;2.20;0.73;;;10.70;99.90;;;8.43;77.45;100071.88;10568097;28;20061;-81
2022/12/24 16:18:35;;;;;;;2.23;0.50;;;10.60;99.90;;;8.30;77.69;100075.75;10539475;28;20068;-82
2022/12/24 16:23:47;;;;;;;2.50;0.70;;;10.50;99.90;;;8.22;77.71;100075.72;10543769;27;20062;-82
2022/12/24 16:28:50;;;;;;;2.10;0.60;;;10.50;99.90;;;8.21;77.68;100073.19;10534176;28;20512;-82
2022/12/24 16:33:56;;;;;;;4.47;1.10;;;10.40;99.90;;;8.20;77.71;100088.25;10525219;28;20144;-82
2022/12/24 16:44:22;;;;;;;1.87;0.70;;;10.30;99.90;;;7.95;78.94;100089.88;10568764;28;20110;-82
2022/12/24 16:49:26;;;;;;;1.67;0.83;;;10.20;99.90;;;7.93;79.03;100086.56;10535345;28;20066;-81
2022/12/24 16:54:29;;;;;;;4.70;1.40;;;10.20;99.90;;;7.91;78.90;100100.94;10512308;28;20060;-82
2022/12/24 16:59:31;;;;;;;4.47;2.20;;;10.20;99.90;;;7.85;79.53;100096.25;10519104;28;20063;-82
2022/12/24 17:04:35;;;;;;;3.43;1.73;;;10.10;99.90;;;7.71;80.21;100109.03;10519635;28;20523;-82
2022/12/24 17:09:38;;;;;;;4.40;1.90;;;10.10;99.90;;;7.62;80.46;100120.53;10534658;28;20113;-81
2022/12/24 17:14:41;;;;;;;7.20;1.73;;;9.90;99.90;;;7.63;80.87;100119.53;10545088;28;20145;-81
2022/12/24 17:19:44;;;;;;;2.60;1.10;;;9.90;99.90;;;7.61;80.88;100125.94;10537464;28;20065;-82
2022/12/24 17:24:47;;;;;;;3.03;1.10;;;9.90;99.90;;;7.44;81.36;100135.56;10562264;28;20094;-81
2022/12/24 17:29:50;;;;;;;3.23;1.13;;;9.80;99.90;;;7.33;81.94;100128.66;10552314;28;20557;-81
2022/12/24 17:34:53;;;;;;;4.80;1.90;;;9.70;99.90;;;7.11;82.82;100137.81;10537514;28;20079;-81
2022/12/24 17:39:56;;;;;;;6.93;1.90;;;9.50;99.90;;;6.90;83.94;100146.00;10512858;28;20056;-81
2022/12/24 17:44:59;;;;;;;5.80;2.70;;;9.30;99.90;;;6.73;84.80;100161.75;10523665;28;20052;-81
2022/12/24 17:50:03;;;;;;;14.97;5.90;;;9.10;99.90;;;6.54;85.54;100163.50;10482571;28;20468;-81
2022/12/24 17:55:07;;;;;;;8.00;3.00;;;9.00;99.90;;;6.38;86.79;100166.69;10516808;28;20111;-83
2022/12/24 18:00:11;;;;;;;6.37;2.60;;;8.80;99.90;;;6.36;88.89;100173.09;10471624;28;20052;-83
2022/12/24 18:05:15;;;;;;;7.83;3.10;;;8.70;99.90;;;6.25;89.48;100176.72;10494936;28;20144;-87
2022/12/24 18:10:18;;;;;;;13.50;5.03;;;8.60;99.90;;;6.05;89.83;100175.88;10480986;28;20068;-87
2022/12/24 18:15:21;;;;;;;10.63;4.50;;;8.50;99.90;;;5.88;90.77;100187.13;10479341;28;20076;-87
2022/12/24 18:20:24;;;;;;;7.37;2.67;;;8.30;99.90;;;5.91;93.39;100184.22;10482208;28;20240;-87
2022/12/24 18:25:27;;;;;;;7.77;2.70;;;8.20;99.90;;;6.14;95.17;100182.97;10489853;28;20149;-87
2022/12/24 18:30:30;;;;;;;9.20;2.67;;;8.40;99.90;;;6.29;95.78;100177.25;10499324;28;20061;-86
2022/12/24 18:35:33;;;;;;;7.27;2.60;;;8.60;99.90;;;6.44;96.85;100189.06;10489810;28;20091;-88
2022/12/24 18:40:36;;;;;;;4.27;1.80;;;8.70;99.90;;;6.65;97.74;100194.97;10476473;28;20056;-88
2022/12/24 18:45:41;;;;;;;5.40;2.27;;;8.90;99.90;;;6.85;98.34;100195.78;10517133;28;20530;-81
2022/12/24 18:50:55;;;;;;;3.87;1.33;;;9.10;99.90;;;7.07;98.68;100201.66;10538643;28;20115;-87
2022/12/24 18:56:09;;;;;;;4.30;1.50;;;9.20;99.90;;;7.27;98.52;100215.66;10501577;28;20151;-84
2022/12/24 19:01:31;;;;;;;6.47;1.70;;;9.40;99.90;;;7.43;97.93;100221.94;10513730;28;20083;-82
2022/12/24 19:06:35;;;;;;;5.23;2.00;;;9.60;99.90;;;7.47;96.89;100241.84;10518725;28;20143;-86
2022/12/24 19:11:39;;;;;;;3.40;1.40;;;9.70;99.90;;;7.47;96.27;100243.66;10507886;28;20064;-84
2022/12/24 19:16:42;;;;;;;2.40;1.30;;;9.70;99.90;;;7.42;95.87;100248.53;10528275;28;20060;-85
2022/12/24 19:21:46;;;;;;;5.87;1.60;;;9.60;99.90;;;7.30;96.01;100252.34;10528590;28;20067;-84
2022/12/24 19:26:49;;;;;;;3.57;1.83;;;9.60;99.90;;;7.17;95.92;100258.78;10540033;28;20083;-86
2022/12/24 19:31:52;;;;;;;6.40;2.60;;;9.50;99.90;;;7.06;96.40;100244.94;10517016;28;20158;-86
2022/12/24 19:36:55;;;;;;;3.77;2.20;;;9.30;99.90;;;7.00;97.51;100256.91;10525629;28;20067;-87
2022/12/24 19:42:00;;;;;;;3.80;1.47;;;9.30;99.90;;;7.11;98.04;100264.66;10526500;28;20067;-86
2022/12/24 19:47:03;;;;;;;4.47;1.30;;;9.30;99.90;;;7.28;98.47;100270.16;10506108;28;20056;-84
2022/12/24 19:52:06;;;;;;;3.20;1.10;;;9.40;99.90;;;7.35;97.69;100279.19;10526541;28;20068;-90
2022/12/24 19:57:10;;;;;;;3.70;1.20;;;9.60;99.90;;;7.27;97.24;100277.28;10517779;28;20056;-86
2022/12/24 20:02:13;;;;;;;2.53;1.20;;;9.50;99.90;;;7.16;97.12;100282.72;10567674;28;20060;-87
2022/12/24 20:07:16;;;;;;;5.70;1.23;;;9.40;99.90;;;7.03;97.18;100279.56;10563539;28;20201;-87
2022/12/24 20:12:19;;;;;;;2.67;1.30;;;9.30;99.90;;;6.94;97.23;100279.44;10546008;28;20059;-86
2022/12/24 20:17:22;;;;;;;2.37;1.43;;;9.20;99.90;;;6.97;97.92;100286.25;10527588;28;20114;-87
2022/12/24 20:22:25;;;;;;;3.80;1.33;;;9.20;99.90;;;7.07;98.50;100284.41;10536451;28;20059;-87
2022/12/24 20:27:28;;;;;;;5.40;2.27;;;9.30;99.90;;;7.07;97.94;100292.34;10550640;28;20148;-88
2022/12/24 20:32:31;;;;;;;6.20;2.43;;;9.30;99.90;;;6.98;97.95;100285.28;10543413;28;20471;-81
2022/12/24 20:37:38;;;;;;;4.80;2.20;;;9.20;99.90;;;6.85;97.98;100290.03;10531977;28;20056;-81
2022/12/24 20:42:48;;;;;;;6.47;3.00;;;9.10;99.90;;;6.70;98.53;100287.81;10571028;28;20052;-81
2022/12/24 20:47:51;;;;;;;4.93;2.43;;;9.00;99.90;;;6.57;98.59;100297.84;10549115;28;20056;-81
2022/12/24 20:52:54;;;;;;;6.50;2.50;;;8.90;99.90;;;6.50;99.42;100312.56;10567013;28;20060;-81
2022/12/24 20:57:57;;;;;;;5.37;2.10;;;8.70;99.90;;;6.48;100.00;100314.53;10563841;28;20083;-82
2022/12/24 21:03:00;;;;;;;11.97;4.90;;;8.70;99.90;;;6.38;100.00;100322.44;10529450;28;20054;-82
2022/12/24 21:08:03;;;;;;;7.30;2.90;;;8.60;99.90;;;6.39;100.00;100310.06;10535179;28;20182;-81
2022/12/24 21:13:07;;;;;;;6.17;2.40;;;8.60;99.90;;;6.46;100.00;100313.81;10551978;28;20195;-82
2022/12/24 21:18:10;;;;;;;12.03;4.50;;;8.70;99.90;;;6.36;100.00;100329.66;10554632;28;20060;-81
2022/12/24 21:23:13;;;;;;;16.60;6.80;;;8.60;99.90;;;6.20;100.00;100324.06;10553332;28;20067;-81
2022/12/24 21:28:17;;;;;;;11.50;5.37;;;8.50;99.90;;;5.98;100.00;100326.94;10567651;28;20084;-83
2022/12/24 21:33:20;;;;;;;5.77;3.00;;;8.30;99.90;;;5.84;100.00;100333.41;10532742;28;20060;-83
2022/12/24 21:38:24;;;;;;;4.93;1.70;;;8.10;99.90;;;5.92;100.00;100359.13;10533962;28;20057;-83